sensor_id;sensor_type;location;lat;lon;timestamp;P1;durP1;ratioP1;P2;durP2;ratioP2
51224;SDS011;37298;42.688;23.312;2023-10-08T00:00:23;9.73;;;4.80;;
51224;SDS011;37298;42.688;23.312;2023-10-08T00:03:09;9.55;;;5.13;;
51224;SDS011;37298;42.688;23.312;2023-10-08T00:05:35;9.48;;;5.10;;
51224;SDS011;37298;42.688;23.312;2023-10-08T00:08:02;9.32;;;4.57;;
51224;SDS011;37298;42.688;23.312;2023-10-08T00:10:33;12.13;;;5.35;;
51224;SDS011;37298;42.688;23.312;2023-10-08T00:13:00;9.20;;;5.35;;
51224;SDS011;37298;42.688;23.312;2023-10-08T00:15:27;10.45;;;4.90;;
51224;SDS011;37298;42.688;23.312;2023-10-08T00:17:53;13.18;;;4.95;;
51224;SDS011;37298;42.688;23.312;2023-10-08T00:20:20;10.65;;;4.88;;
51224;SDS011;37298;42.688;23.312;2023-10-08T00:22:51;8.93;;;4.93;;
51224;SDS011;37298;42.688;23.312;2023-10-08T00:25:20;12.30;;;4.70;;
51224;SDS011;37298;42.688;23.312;2023-10-08T00:27:46;11.98;;;5.47;;
51224;SDS011;37298;42.688;23.312;2023-10-08T00:30:17;10.30;;;4.68;;
51224;SDS011;37298;42.688;23.312;2023-10-08T00:32:44;11.88;;;5.20;;
51224;SDS011;37298;42.688;23.312;2023-10-08T00:35:11;8.43;;;4.88;;
51224;SDS011;37298;42.688;23.312;2023-10-08T00:37:39;10.38;;;4.70;;
51224;SDS011;37298;42.688;23.312;2023-10-08T00:40:06;9.65;;;5.05;;
51224;SDS011;37298;42.688;23.312;2023-10-08T00:42:47;10.38;;;4.85;;
51224;SDS011;37298;42.688;23.312;2023-10-08T00:45:13;10.57;;;5.10;;
51224;SDS011;37298;42.688;23.312;2023-10-08T00:47:40;9.88;;;5.00;;
51224;SDS011;37298;42.688;23.312;2023-10-08T00:50:09;11.88;;;5.53;;
51224;SDS011;37298;42.688;23.312;2023-10-08T00:52:38;9.80;;;4.78;;
51224;SDS011;37298;42.688;23.312;2023-10-08T00:55:06;7.88;;;4.65;;
51224;SDS011;37298;42.688;23.312;2023-10-08T00:57:47;7.70;;;4.70;;
51224;SDS011;37298;42.688;23.312;2023-10-08T01:00:14;8.88;;;4.43;;
51224;SDS011;37298;42.688;23.312;2023-10-08T01:02:47;14.80;;;4.40;;
51224;SDS011;37298;42.688;23.312;2023-10-08T01:05:20;16.13;;;4.35;;
51224;SDS011;37298;42.688;23.312;2023-10-08T01:07:51;8.27;;;4.45;;
51224;SDS011;37298;42.688;23.312;2023-10-08T01:10:19;11.45;;;4.30;;
51224;SDS011;37298;42.688;23.312;2023-10-08T01:12:46;8.07;;;4.05;;
51224;SDS011;37298;42.688;23.312;2023-10-08T01:15:29;8.05;;;4.20;;
51224;SDS011;37298;42.688;23.312;2023-10-08T01:17:57;6.15;;;3.55;;
51224;SDS011;37298;42.688;23.312;2023-10-08T01:20:26;5.85;;;3.80;;
51224;SDS011;37298;42.688;23.312;2023-10-08T01:23:00;12.52;;;4.90;;
51224;SDS011;37298;42.688;23.312;2023-10-08T01:25:29;7.78;;;3.83;;
51224;SDS011;37298;42.688;23.312;2023-10-08T01:27:56;10.13;;;4.65;;
51224;SDS011;37298;42.688;23.312;2023-10-08T01:30:26;8.15;;;4.53;;
51224;SDS011;37298;42.688;23.312;2023-10-08T01:32:54;7.35;;;3.85;;
51224;SDS011;37298;42.688;23.312;2023-10-08T01:35:21;8.73;;;4.10;;
51224;SDS011;37298;42.688;23.312;2023-10-08T01:37:48;8.43;;;4.30;;
51224;SDS011;37298;42.688;23.312;2023-10-08T01:40:16;8.60;;;3.60;;
51224;SDS011;37298;42.688;23.312;2023-10-08T01:42:44;7.95;;;4.45;;
51224;SDS011;37298;42.688;23.312;2023-10-08T01:45:11;8.13;;;4.20;;
51224;SDS011;37298;42.688;23.312;2023-10-08T01:47:44;6.82;;;3.67;;
51224;SDS011;37298;42.688;23.312;2023-10-08T01:50:10;6.78;;;3.95;;
51224;SDS011;37298;42.688;23.312;2023-10-08T01:52:46;6.88;;;3.78;;
51224;SDS011;37298;42.688;23.312;2023-10-08T01:55:13;5.82;;;3.55;;
51224;SDS011;37298;42.688;23.312;2023-10-08T01:57:44;11.00;;;3.92;;
51224;SDS011;37298;42.688;23.312;2023-10-08T02:00:10;9.10;;;4.32;;
51224;SDS011;37298;42.688;23.312;2023-10-08T02:02:37;10.65;;;4.30;;
51224;SDS011;37298;42.688;23.312;2023-10-08T02:07:32;7.70;;;4.00;;
51224;SDS011;37298;42.688;23.312;2023-10-08T02:09:59;10.45;;;4.05;;
51224;SDS011;37298;42.688;23.312;2023-10-08T02:12:26;9.95;;;4.07;;
51224;SDS011;37298;42.688;23.312;2023-10-08T02:14:53;11.38;;;4.28;;
51224;SDS011;37298;42.688;23.312;2023-10-08T02:17:19;7.85;;;4.03;;
51224;SDS011;37298;42.688;23.312;2023-10-08T02:19:45;8.15;;;3.72;;
51224;SDS011;37298;42.688;23.312;2023-10-08T02:22:11;11.60;;;4.40;;
51224;SDS011;37298;42.688;23.312;2023-10-08T02:24:39;8.63;;;4.35;;
51224;SDS011;37298;42.688;23.312;2023-10-08T02:27:05;8.27;;;4.20;;
51224;SDS011;37298;42.688;23.312;2023-10-08T02:29:32;6.93;;;4.05;;
51224;SDS011;37298;42.688;23.312;2023-10-08T02:31:59;13.00;;;4.57;;
51224;SDS011;37298;42.688;23.312;2023-10-08T02:34:25;9.38;;;4.05;;
51224;SDS011;37298;42.688;23.312;2023-10-08T02:36:52;10.68;;;4.82;;
51224;SDS011;37298;42.688;23.312;2023-10-08T02:39:18;10.40;;;4.68;;
51224;SDS011;37298;42.688;23.312;2023-10-08T02:41:48;8.25;;;4.53;;
51224;SDS011;37298;42.688;23.312;2023-10-08T02:44:15;7.72;;;4.10;;
51224;SDS011;37298;42.688;23.312;2023-10-08T02:46:42;11.48;;;4.65;;
51224;SDS011;37298;42.688;23.312;2023-10-08T02:49:11;12.57;;;3.95;;
51224;SDS011;37298;42.688;23.312;2023-10-08T02:51:38;8.63;;;4.15;;
51224;SDS011;37298;42.688;23.312;2023-10-08T02:54:05;8.13;;;4.40;;
51224;SDS011;37298;42.688;23.312;2023-10-08T02:56:31;9.00;;;4.43;;
51224;SDS011;37298;42.688;23.312;2023-10-08T02:58:58;8.30;;;4.93;;
51224;SDS011;37298;42.688;23.312;2023-10-08T03:01:25;7.35;;;4.25;;
51224;SDS011;37298;42.688;23.312;2023-10-08T03:03:52;10.30;;;4.97;;
51224;SDS011;37298;42.688;23.312;2023-10-08T03:06:28;6.57;;;3.92;;
51224;SDS011;37298;42.688;23.312;2023-10-08T03:08:58;7.80;;;4.43;;
51224;SDS011;37298;42.688;23.312;2023-10-08T03:11:29;9.07;;;4.22;;
51224;SDS011;37298;42.688;23.312;2023-10-08T03:13:57;6.10;;;3.70;;
51224;SDS011;37298;42.688;23.312;2023-10-08T03:16:25;10.07;;;4.95;;
51224;SDS011;37298;42.688;23.312;2023-10-08T03:18:59;8.05;;;4.35;;
51224;SDS011;37298;42.688;23.312;2023-10-08T03:21:26;9.13;;;4.18;;
51224;SDS011;37298;42.688;23.312;2023-10-08T03:24:07;10.65;;;4.60;;
51224;SDS011;37298;42.688;23.312;2023-10-08T03:26:49;7.97;;;4.20;;
51224;SDS011;37298;42.688;23.312;2023-10-08T03:29:21;8.57;;;4.43;;
51224;SDS011;37298;42.688;23.312;2023-10-08T03:31:47;12.13;;;4.20;;
51224;SDS011;37298;42.688;23.312;2023-10-08T03:34:19;7.97;;;4.63;;
51224;SDS011;37298;42.688;23.312;2023-10-08T03:36:52;11.57;;;5.15;;
51224;SDS011;37298;42.688;23.312;2023-10-08T03:39:25;8.27;;;3.85;;
51224;SDS011;37298;42.688;23.312;2023-10-08T03:42:12;9.43;;;4.75;;
51224;SDS011;37298;42.688;23.312;2023-10-08T03:44:45;8.98;;;4.00;;
51224;SDS011;37298;42.688;23.312;2023-10-08T03:47:16;9.27;;;4.15;;
51224;SDS011;37298;42.688;23.312;2023-10-08T03:49:44;11.43;;;4.63;;
51224;SDS011;37298;42.688;23.312;2023-10-08T03:52:12;6.55;;;4.00;;
51224;SDS011;37298;42.688;23.312;2023-10-08T03:54:39;11.98;;;3.60;;
51224;SDS011;37298;42.688;23.312;2023-10-08T03:57:13;10.15;;;4.57;;
51224;SDS011;37298;42.688;23.312;2023-10-08T03:59:40;7.82;;;4.20;;
51224;SDS011;37298;42.688;23.312;2023-10-08T04:02:07;9.10;;;4.93;;
51224;SDS011;37298;42.688;23.312;2023-10-08T04:04:39;8.52;;;4.25;;
51224;SDS011;37298;42.688;23.312;2023-10-08T04:07:21;12.40;;;4.78;;
51224;SDS011;37298;42.688;23.312;2023-10-08T04:09:53;8.32;;;3.90;;
51224;SDS011;37298;42.688;23.312;2023-10-08T04:12:31;9.68;;;4.20;;
51224;SDS011;37298;42.688;23.312;2023-10-08T04:17:26;7.82;;;4.30;;
51224;SDS011;37298;42.688;23.312;2023-10-08T04:19:52;7.15;;;4.10;;
51224;SDS011;37298;42.688;23.312;2023-10-08T04:22:19;6.00;;;4.00;;
51224;SDS011;37298;42.688;23.312;2023-10-08T04:24:45;10.32;;;5.13;;
51224;SDS011;37298;42.688;23.312;2023-10-08T04:27:12;9.82;;;4.60;;
51224;SDS011;37298;42.688;23.312;2023-10-08T04:32:07;9.57;;;5.38;;
51224;SDS011;37298;42.688;23.312;2023-10-08T04:34:37;8.43;;;4.15;;
51224;SDS011;37298;42.688;23.312;2023-10-08T04:37:04;10.18;;;4.60;;
51224;SDS011;37298;42.688;23.312;2023-10-08T04:39:38;9.20;;;4.60;;
51224;SDS011;37298;42.688;23.312;2023-10-08T04:42:06;12.65;;;4.85;;
51224;SDS011;37298;42.688;23.312;2023-10-08T04:44:36;10.60;;;5.25;;
51224;SDS011;37298;42.688;23.312;2023-10-08T04:47:05;11.35;;;5.47;;
51224;SDS011;37298;42.688;23.312;2023-10-08T04:49:32;14.18;;;5.22;;
51224;SDS011;37298;42.688;23.312;2023-10-08T04:52:00;9.70;;;5.15;;
51224;SDS011;37298;42.688;23.312;2023-10-08T04:54:26;12.25;;;5.03;;
51224;SDS011;37298;42.688;23.312;2023-10-08T04:56:56;9.38;;;5.55;;
51224;SDS011;37298;42.688;23.312;2023-10-08T04:59:23;9.90;;;5.33;;
51224;SDS011;37298;42.688;23.312;2023-10-08T05:01:58;9.55;;;5.60;;
51224;SDS011;37298;42.688;23.312;2023-10-08T05:04:45;10.50;;;5.30;;
51224;SDS011;37298;42.688;23.312;2023-10-08T05:07:22;10.48;;;5.13;;
51224;SDS011;37298;42.688;23.312;2023-10-08T05:10:06;11.32;;;5.32;;
51224;SDS011;37298;42.688;23.312;2023-10-08T05:12:47;12.80;;;5.25;;
51224;SDS011;37298;42.688;23.312;2023-10-08T05:15:26;9.40;;;5.00;;
51224;SDS011;37298;42.688;23.312;2023-10-08T05:18:02;11.32;;;5.47;;
51224;SDS011;37298;42.688;23.312;2023-10-08T05:20:49;8.65;;;5.15;;
51224;SDS011;37298;42.688;23.312;2023-10-08T05:26:35;9.32;;;4.60;;
51224;SDS011;37298;42.688;23.312;2023-10-08T05:29:08;21.80;;;7.13;;
51224;SDS011;37298;42.688;23.312;2023-10-08T05:31:49;8.07;;;4.85;;
51224;SDS011;37298;42.688;23.312;2023-10-08T05:34:36;10.05;;;5.40;;
51224;SDS011;37298;42.688;23.312;2023-10-08T05:37:09;9.52;;;5.28;;
51224;SDS011;37298;42.688;23.312;2023-10-08T05:39:58;15.57;;;5.22;;
51224;SDS011;37298;42.688;23.312;2023-10-08T05:42:42;11.18;;;5.18;;
51224;SDS011;37298;42.688;23.312;2023-10-08T05:45:13;9.63;;;5.28;;
51224;SDS011;37298;42.688;23.312;2023-10-08T05:47:55;11.88;;;5.40;;
51224;SDS011;37298;42.688;23.312;2023-10-08T05:50:39;12.75;;;5.22;;
51224;SDS011;37298;42.688;23.312;2023-10-08T05:53:08;9.63;;;5.35;;
51224;SDS011;37298;42.688;23.312;2023-10-08T05:55:45;10.48;;;5.35;;
51224;SDS011;37298;42.688;23.312;2023-10-08T05:58:13;13.75;;;5.47;;
51224;SDS011;37298;42.688;23.312;2023-10-08T06:00:41;13.27;;;7.45;;
51224;SDS011;37298;42.688;23.312;2023-10-08T06:03:25;13.20;;;5.32;;
51224;SDS011;37298;42.688;23.312;2023-10-08T06:05:59;16.75;;;6.32;;
51224;SDS011;37298;42.688;23.312;2023-10-08T06:08:42;9.93;;;5.13;;
51224;SDS011;37298;42.688;23.312;2023-10-08T06:11:17;7.97;;;5.07;;
51224;SDS011;37298;42.688;23.312;2023-10-08T06:13:56;10.07;;;5.90;;
51224;SDS011;37298;42.688;23.312;2023-10-08T06:16:26;18.00;;;5.80;;
51224;SDS011;37298;42.688;23.312;2023-10-08T06:19:07;10.35;;;4.82;;
51224;SDS011;37298;42.688;23.312;2023-10-08T06:21:35;15.83;;;4.97;;
51224;SDS011;37298;42.688;23.312;2023-10-08T06:24:03;16.15;;;4.88;;
51224;SDS011;37298;42.688;23.312;2023-10-08T06:26:35;15.07;;;5.22;;
51224;SDS011;37298;42.688;23.312;2023-10-08T06:29:04;19.05;;;5.93;;
51224;SDS011;37298;42.688;23.312;2023-10-08T06:31:44;11.23;;;5.13;;
51224;SDS011;37298;42.688;23.312;2023-10-08T06:34:16;9.10;;;5.13;;
51224;SDS011;37298;42.688;23.312;2023-10-08T06:36:47;12.98;;;6.68;;
51224;SDS011;37298;42.688;23.312;2023-10-08T06:39:13;13.45;;;6.90;;
51224;SDS011;37298;42.688;23.312;2023-10-08T06:41:44;15.15;;;5.70;;
51224;SDS011;37298;42.688;23.312;2023-10-08T06:44:12;18.58;;;5.95;;
51224;SDS011;37298;42.688;23.312;2023-10-08T06:46:40;11.40;;;5.38;;
51224;SDS011;37298;42.688;23.312;2023-10-08T06:49:07;8.43;;;4.70;;
51224;SDS011;37298;42.688;23.312;2023-10-08T06:51:37;15.68;;;5.65;;
51224;SDS011;37298;42.688;23.312;2023-10-08T06:54:04;8.07;;;4.80;;
51224;SDS011;37298;42.688;23.312;2023-10-08T06:56:30;11.38;;;5.78;;
51224;SDS011;37298;42.688;23.312;2023-10-08T06:58:57;11.77;;;5.70;;
51224;SDS011;37298;42.688;23.312;2023-10-08T07:01:24;13.75;;;5.18;;
51224;SDS011;37298;42.688;23.312;2023-10-08T07:03:51;11.55;;;5.45;;
51224;SDS011;37298;42.688;23.312;2023-10-08T07:06:17;10.00;;;5.40;;
51224;SDS011;37298;42.688;23.312;2023-10-08T07:08:51;13.55;;;5.28;;
51224;SDS011;37298;42.688;23.312;2023-10-08T07:11:21;11.52;;;5.75;;
51224;SDS011;37298;42.688;23.312;2023-10-08T07:13:47;10.57;;;5.30;;
51224;SDS011;37298;42.688;23.312;2023-10-08T07:16:14;11.23;;;5.78;;
51224;SDS011;37298;42.688;23.312;2023-10-08T07:18:43;15.38;;;6.38;;
51224;SDS011;37298;42.688;23.312;2023-10-08T07:21:15;15.27;;;6.25;;
51224;SDS011;37298;42.688;23.312;2023-10-08T07:23:41;10.73;;;6.05;;
51224;SDS011;37298;42.688;23.312;2023-10-08T07:26:22;10.90;;;5.00;;
51224;SDS011;37298;42.688;23.312;2023-10-08T07:28:50;11.00;;;5.75;;
51224;SDS011;37298;42.688;23.312;2023-10-08T07:31:17;14.82;;;5.70;;
51224;SDS011;37298;42.688;23.312;2023-10-08T07:33:46;10.00;;;5.72;;
51224;SDS011;37298;42.688;23.312;2023-10-08T07:36:13;15.52;;;7.28;;
51224;SDS011;37298;42.688;23.312;2023-10-08T07:38:40;11.05;;;5.65;;
51224;SDS011;37298;42.688;23.312;2023-10-08T07:41:08;12.48;;;5.57;;
51224;SDS011;37298;42.688;23.312;2023-10-08T07:43:35;11.65;;;5.72;;
51224;SDS011;37298;42.688;23.312;2023-10-08T07:46:01;10.82;;;5.40;;
51224;SDS011;37298;42.688;23.312;2023-10-08T07:48:27;13.55;;;5.40;;
51224;SDS011;37298;42.688;23.312;2023-10-08T07:50:55;21.35;;;5.47;;
51224;SDS011;37298;42.688;23.312;2023-10-08T07:53:22;12.68;;;5.65;;
51224;SDS011;37298;42.688;23.312;2023-10-08T07:55:49;14.70;;;5.63;;
51224;SDS011;37298;42.688;23.312;2023-10-08T07:58:16;8.50;;;5.22;;
51224;SDS011;37298;42.688;23.312;2023-10-08T08:00:44;9.45;;;4.80;;
51224;SDS011;37298;42.688;23.312;2023-10-08T08:03:18;14.68;;;4.95;;
51224;SDS011;37298;42.688;23.312;2023-10-08T08:05:44;10.32;;;4.82;;
51224;SDS011;37298;42.688;23.312;2023-10-08T08:08:10;12.98;;;5.32;;
51224;SDS011;37298;42.688;23.312;2023-10-08T08:10:43;9.10;;;3.92;;
51224;SDS011;37298;42.688;23.312;2023-10-08T08:13:09;5.40;;;2.67;;
51224;SDS011;37298;42.688;23.312;2023-10-08T08:15:36;5.95;;;3.08;;
51224;SDS011;37298;42.688;23.312;2023-10-08T08:18:07;8.00;;;3.50;;
51224;SDS011;37298;42.688;23.312;2023-10-08T08:20:44;5.00;;;2.53;;
51224;SDS011;37298;42.688;23.312;2023-10-08T08:23:11;6.05;;;3.00;;
51224;SDS011;37298;42.688;23.312;2023-10-08T08:25:37;8.10;;;2.95;;
51224;SDS011;37298;42.688;23.312;2023-10-08T08:28:11;6.57;;;3.55;;
51224;SDS011;37298;42.688;23.312;2023-10-08T08:30:42;6.38;;;3.22;;
51224;SDS011;37298;42.688;23.312;2023-10-08T08:33:13;7.43;;;3.70;;
51224;SDS011;37298;42.688;23.312;2023-10-08T08:35:42;7.55;;;3.17;;
51224;SDS011;37298;42.688;23.312;2023-10-08T08:38:08;5.55;;;2.63;;
51224;SDS011;37298;42.688;23.312;2023-10-08T08:40:35;7.43;;;3.30;;
51224;SDS011;37298;42.688;23.312;2023-10-08T08:43:01;10.57;;;3.85;;
51224;SDS011;37298;42.688;23.312;2023-10-08T08:45:30;9.32;;;3.53;;
51224;SDS011;37298;42.688;23.312;2023-10-08T08:47:59;7.78;;;3.28;;
51224;SDS011;37298;42.688;23.312;2023-10-08T08:50:25;6.70;;;3.40;;
51224;SDS011;37298;42.688;23.312;2023-10-08T08:52:52;10.00;;;3.30;;
51224;SDS011;37298;42.688;23.312;2023-10-08T08:55:19;4.75;;;2.85;;
51224;SDS011;37298;42.688;23.312;2023-10-08T08:57:46;9.57;;;3.08;;
51224;SDS011;37298;42.688;23.312;2023-10-08T09:00:13;10.73;;;5.32;;
51224;SDS011;37298;42.688;23.312;2023-10-08T09:02:40;6.47;;;3.60;;
51224;SDS011;37298;42.688;23.312;2023-10-08T09:05:06;5.60;;;2.70;;
51224;SDS011;37298;42.688;23.312;2023-10-08T09:07:58;7.10;;;3.45;;
51224;SDS011;37298;42.688;23.312;2023-10-08T09:10:28;6.22;;;3.40;;
51224;SDS011;37298;42.688;23.312;2023-10-08T09:12:55;6.20;;;3.20;;
51224;SDS011;37298;42.688;23.312;2023-10-08T09:15:23;5.93;;;3.30;;
51224;SDS011;37298;42.688;23.312;2023-10-08T09:17:49;8.75;;;3.67;;
51224;SDS011;37298;42.688;23.312;2023-10-08T09:20:17;8.00;;;3.70;;
51224;SDS011;37298;42.688;23.312;2023-10-08T09:22:46;7.32;;;3.58;;
51224;SDS011;37298;42.688;23.312;2023-10-08T09:25:17;6.45;;;3.03;;
51224;SDS011;37298;42.688;23.312;2023-10-08T09:27:52;12.35;;;3.55;;
51224;SDS011;37298;42.688;23.312;2023-10-08T09:30:24;6.72;;;3.28;;
51224;SDS011;37298;42.688;23.312;2023-10-08T09:32:51;6.05;;;3.40;;
51224;SDS011;37298;42.688;23.312;2023-10-08T09:35:17;6.80;;;3.25;;
51224;SDS011;37298;42.688;23.312;2023-10-08T09:37:44;8.57;;;4.05;;
51224;SDS011;37298;42.688;23.312;2023-10-08T09:40:11;6.07;;;2.95;;
51224;SDS011;37298;42.688;23.312;2023-10-08T09:42:38;3.45;;;2.17;;
51224;SDS011;37298;42.688;23.312;2023-10-08T09:45:04;7.20;;;3.05;;
51224;SDS011;37298;42.688;23.312;2023-10-08T09:47:34;6.10;;;3.33;;
51224;SDS011;37298;42.688;23.312;2023-10-08T09:50:02;7.55;;;3.55;;
51224;SDS011;37298;42.688;23.312;2023-10-08T09:52:33;10.85;;;3.88;;
51224;SDS011;37298;42.688;23.312;2023-10-08T09:55:05;6.97;;;3.30;;
51224;SDS011;37298;42.688;23.312;2023-10-08T09:57:35;8.73;;;3.40;;
51224;SDS011;37298;42.688;23.312;2023-10-08T10:00:04;7.18;;;3.38;;
51224;SDS011;37298;42.688;23.312;2023-10-08T10:02:36;9.60;;;3.58;;
51224;SDS011;37298;42.688;23.312;2023-10-08T10:05:04;7.50;;;3.35;;
51224;SDS011;37298;42.688;23.312;2023-10-08T10:07:31;7.47;;;3.63;;
51224;SDS011;37298;42.688;23.312;2023-10-08T10:09:57;10.25;;;4.25;;
51224;SDS011;37298;42.688;23.312;2023-10-08T10:12:24;5.78;;;3.03;;
51224;SDS011;37298;42.688;23.312;2023-10-08T10:14:52;4.85;;;2.65;;
51224;SDS011;37298;42.688;23.312;2023-10-08T10:17:21;9.52;;;4.45;;
51224;SDS011;37298;42.688;23.312;2023-10-08T10:19:53;7.25;;;3.30;;
51224;SDS011;37298;42.688;23.312;2023-10-08T10:22:26;8.85;;;3.58;;
51224;SDS011;37298;42.688;23.312;2023-10-08T10:25:01;4.88;;;2.63;;
51224;SDS011;37298;42.688;23.312;2023-10-08T10:27:29;4.00;;;2.22;;
51224;SDS011;37298;42.688;23.312;2023-10-08T10:30:01;9.82;;;2.97;;
51224;SDS011;37298;42.688;23.312;2023-10-08T10:32:30;6.68;;;2.60;;
51224;SDS011;37298;42.688;23.312;2023-10-08T10:34:56;8.27;;;3.20;;
51224;SDS011;37298;42.688;23.312;2023-10-08T10:37:22;12.30;;;3.22;;
51224;SDS011;37298;42.688;23.312;2023-10-08T10:39:50;8.80;;;2.85;;
51224;SDS011;37298;42.688;23.312;2023-10-08T10:42:19;8.50;;;2.42;;
51224;SDS011;37298;42.688;23.312;2023-10-08T10:44:46;5.78;;;3.28;;
51224;SDS011;37298;42.688;23.312;2023-10-08T10:52:22;10.88;;;2.90;;
51224;SDS011;37298;42.688;23.312;2023-10-08T10:55:01;8.40;;;2.45;;
51224;SDS011;37298;42.688;23.312;2023-10-08T10:57:44;6.07;;;3.08;;
51224;SDS011;37298;42.688;23.312;2023-10-08T11:00:19;11.63;;;3.15;;
51224;SDS011;37298;42.688;23.312;2023-10-08T11:03:11;3.75;;;2.38;;
51224;SDS011;37298;42.688;23.312;2023-10-08T11:05:49;14.32;;;3.25;;
51224;SDS011;37298;42.688;23.312;2023-10-08T11:08:20;7.25;;;2.83;;
51224;SDS011;37298;42.688;23.312;2023-10-08T11:10:48;16.55;;;3.35;;
51224;SDS011;37298;42.688;23.312;2023-10-08T11:13:18;8.75;;;2.70;;
51224;SDS011;37298;42.688;23.312;2023-10-08T11:15:45;16.17;;;2.90;;
51224;SDS011;37298;42.688;23.312;2023-10-08T11:18:15;7.20;;;2.78;;
51224;SDS011;37298;42.688;23.312;2023-10-08T11:20:41;9.52;;;2.55;;
51224;SDS011;37298;42.688;23.312;2023-10-08T11:23:09;9.35;;;2.67;;
51224;SDS011;37298;42.688;23.312;2023-10-08T11:25:54;11.15;;;2.95;;
51224;SDS011;37298;42.688;23.312;2023-10-08T11:28:21;9.07;;;2.60;;
51224;SDS011;37298;42.688;23.312;2023-10-08T11:30:50;17.80;;;2.78;;
51224;SDS011;37298;42.688;23.312;2023-10-08T11:33:19;7.20;;;2.75;;
51224;SDS011;37298;42.688;23.312;2023-10-08T11:35:57;11.52;;;3.17;;
51224;SDS011;37298;42.688;23.312;2023-10-08T11:38:28;5.68;;;2.65;;
51224;SDS011;37298;42.688;23.312;2023-10-08T11:41:10;10.45;;;3.25;;
51224;SDS011;37298;42.688;23.312;2023-10-08T11:43:38;6.90;;;2.60;;
51224;SDS011;37298;42.688;23.312;2023-10-08T11:46:05;7.68;;;3.28;;
51224;SDS011;37298;42.688;23.312;2023-10-08T11:48:31;6.10;;;2.67;;
51224;SDS011;37298;42.688;23.312;2023-10-08T11:51:03;9.88;;;3.60;;
51224;SDS011;37298;42.688;23.312;2023-10-08T11:53:31;9.43;;;3.35;;
51224;SDS011;37298;42.688;23.312;2023-10-08T11:55:59;6.63;;;2.95;;
51224;SDS011;37298;42.688;23.312;2023-10-08T11:58:26;17.23;;;3.53;;
51224;SDS011;37298;42.688;23.312;2023-10-08T12:01:02;10.10;;;2.45;;
51224;SDS011;37298;42.688;23.312;2023-10-08T12:03:29;10.60;;;2.80;;
51224;SDS011;37298;42.688;23.312;2023-10-08T12:05:57;13.23;;;3.30;;
51224;SDS011;37298;42.688;23.312;2023-10-08T12:08:24;6.93;;;3.03;;
51224;SDS011;37298;42.688;23.312;2023-10-08T12:10:54;3.40;;;1.48;;
51224;SDS011;37298;42.688;23.312;2023-10-08T12:13:20;7.40;;;2.40;;
51224;SDS011;37298;42.688;23.312;2023-10-08T12:15:52;8.52;;;2.85;;
51224;SDS011;37298;42.688;23.312;2023-10-08T12:18:18;4.50;;;2.50;;
51224;SDS011;37298;42.688;23.312;2023-10-08T12:20:50;7.18;;;2.72;;
51224;SDS011;37298;42.688;23.312;2023-10-08T12:23:16;12.13;;;3.10;;
51224;SDS011;37298;42.688;23.312;2023-10-08T12:25:50;8.48;;;2.30;;
51224;SDS011;37298;42.688;23.312;2023-10-08T12:28:17;6.82;;;3.30;;
51224;SDS011;37298;42.688;23.312;2023-10-08T12:30:44;10.73;;;3.42;;
51224;SDS011;37298;42.688;23.312;2023-10-08T12:33:11;16.42;;;4.05;;
51224;SDS011;37298;42.688;23.312;2023-10-08T12:35:41;10.93;;;2.63;;
51224;SDS011;37298;42.688;23.312;2023-10-08T12:38:08;7.70;;;2.80;;
51224;SDS011;37298;42.688;23.312;2023-10-08T12:40:35;13.65;;;3.35;;
51224;SDS011;37298;42.688;23.312;2023-10-08T12:43:13;7.03;;;2.60;;
51224;SDS011;37298;42.688;23.312;2023-10-08T12:45:39;7.50;;;2.92;;
51224;SDS011;37298;42.688;23.312;2023-10-08T12:48:06;7.05;;;2.75;;
51224;SDS011;37298;42.688;23.312;2023-10-08T12:50:34;10.75;;;2.65;;
51224;SDS011;37298;42.688;23.312;2023-10-08T12:53:08;8.93;;;2.67;;
51224;SDS011;37298;42.688;23.312;2023-10-08T12:55:37;9.10;;;3.67;;
51224;SDS011;37298;42.688;23.312;2023-10-08T12:58:05;9.15;;;3.03;;
51224;SDS011;37298;42.688;23.312;2023-10-08T13:00:35;9.50;;;3.17;;
51224;SDS011;37298;42.688;23.312;2023-10-08T13:03:03;8.07;;;2.53;;
51224;SDS011;37298;42.688;23.312;2023-10-08T13:05:31;12.40;;;3.00;;
51224;SDS011;37298;42.688;23.312;2023-10-08T13:07:59;11.00;;;3.10;;
51224;SDS011;37298;42.688;23.312;2023-10-08T13:10:28;7.47;;;2.22;;
51224;SDS011;37298;42.688;23.312;2023-10-08T13:12:56;5.60;;;2.50;;
51224;SDS011;37298;42.688;23.312;2023-10-08T13:15:23;8.30;;;2.65;;
51224;SDS011;37298;42.688;23.312;2023-10-08T13:20:17;6.32;;;2.13;;
51224;SDS011;37298;42.688;23.312;2023-10-08T13:22:44;11.55;;;3.10;;
51224;SDS011;37298;42.688;23.312;2023-10-08T13:25:12;10.50;;;2.88;;
51224;SDS011;37298;42.688;23.312;2023-10-08T13:27:42;7.90;;;2.47;;
51224;SDS011;37298;42.688;23.312;2023-10-08T13:30:09;12.10;;;2.58;;
51224;SDS011;37298;42.688;23.312;2023-10-08T13:32:36;5.18;;;2.72;;
51224;SDS011;37298;42.688;23.312;2023-10-08T13:35:02;7.47;;;2.05;;
51224;SDS011;37298;42.688;23.312;2023-10-08T13:37:31;7.65;;;2.90;;
51224;SDS011;37298;42.688;23.312;2023-10-08T13:39:58;10.45;;;3.30;;
51224;SDS011;37298;42.688;23.312;2023-10-08T13:42:25;11.73;;;2.58;;
51224;SDS011;37298;42.688;23.312;2023-10-08T13:44:52;7.45;;;2.67;;
51224;SDS011;37298;42.688;23.312;2023-10-08T13:47:18;6.65;;;2.67;;
51224;SDS011;37298;42.688;23.312;2023-10-08T13:49:47;9.10;;;2.70;;
51224;SDS011;37298;42.688;23.312;2023-10-08T13:52:15;8.20;;;3.45;;
51224;SDS011;37298;42.688;23.312;2023-10-08T13:54:43;6.78;;;3.03;;
51224;SDS011;37298;42.688;23.312;2023-10-08T13:57:17;8.98;;;3.28;;
51224;SDS011;37298;42.688;23.312;2023-10-08T13:59:46;6.45;;;2.60;;
51224;SDS011;37298;42.688;23.312;2023-10-08T14:02:13;9.00;;;2.78;;
51224;SDS011;37298;42.688;23.312;2023-10-08T14:04:45;7.93;;;2.90;;
51224;SDS011;37298;42.688;23.312;2023-10-08T14:07:11;20.65;;;3.25;;
51224;SDS011;37298;42.688;23.312;2023-10-08T14:09:42;6.22;;;2.72;;
51224;SDS011;37298;42.688;23.312;2023-10-08T14:12:11;10.35;;;3.03;;
51224;SDS011;37298;42.688;23.312;2023-10-08T14:14:39;10.18;;;2.90;;
51224;SDS011;37298;42.688;23.312;2023-10-08T14:17:10;9.23;;;2.60;;
51224;SDS011;37298;42.688;23.312;2023-10-08T14:19:40;16.05;;;2.28;;
51224;SDS011;37298;42.688;23.312;2023-10-08T14:22:12;6.75;;;2.72;;
51224;SDS011;37298;42.688;23.312;2023-10-08T14:24:40;10.65;;;3.20;;
51224;SDS011;37298;42.688;23.312;2023-10-08T14:27:06;6.95;;;2.10;;
51224;SDS011;37298;42.688;23.312;2023-10-08T14:29:36;7.85;;;2.20;;
51224;SDS011;37298;42.688;23.312;2023-10-08T14:32:04;16.27;;;2.83;;
51224;SDS011;37298;42.688;23.312;2023-10-08T14:34:35;12.27;;;2.45;;
51224;SDS011;37298;42.688;23.312;2023-10-08T14:37:31;9.57;;;2.08;;
51224;SDS011;37298;42.688;23.312;2023-10-08T14:40:15;12.13;;;3.05;;
51224;SDS011;37298;42.688;23.312;2023-10-08T14:43:00;10.18;;;2.38;;
51224;SDS011;37298;42.688;23.312;2023-10-08T14:45:28;10.60;;;2.92;;
51224;SDS011;37298;42.688;23.312;2023-10-08T14:47:57;12.88;;;3.10;;
51224;SDS011;37298;42.688;23.312;2023-10-08T14:50:26;12.57;;;2.40;;
51224;SDS011;37298;42.688;23.312;2023-10-08T14:52:53;6.97;;;2.40;;
51224;SDS011;37298;42.688;23.312;2023-10-08T14:55:20;11.57;;;2.80;;
51224;SDS011;37298;42.688;23.312;2023-10-08T14:57:47;10.73;;;2.20;;
51224;SDS011;37298;42.688;23.312;2023-10-08T15:00:17;10.18;;;2.53;;
51224;SDS011;37298;42.688;23.312;2023-10-08T15:02:43;8.07;;;2.40;;